Dieringer, Washington
Current Conditions -  °F | °C
As of 5:58 PM on Tuesday 25 Nov 2014 (Local Time) from KTCM Reporting Station
Overcast Overcast  
Wind Chill: 56°   Ceiling: 1300
Heat Index: 56°   Visibility: 10mi
Dew Point: 56°   Wind: 15mph
Humidity: 99%   Direction: 200°SSW
Pressure: 30.2"   Gusts: NA
Location:  47.2018°N, 122.233°W
Report Text: KTCM 260158Z AUTO 20013KT 10SM SCT009 BKN013 BKN020 BKN027 OVC065 13/13 A3020 RMK AO2 RAE0104 CIG 009V013 SLP231 P0000 T01340132 $
Loading
Personal Weather Stations






























Interactive Weather Map New forecast layout! Learn more

10-Day Weather Forecast

Advertisements
Track Severe Weather on mobile